sensor_id;sensor_type;location;lat;lon;timestamp;P1;durP1;ratioP1;P2;durP2;ratioP2
35632;SDS011;21754;48.216;-1.628;2022-07-06T00:00:04;6.53;;;2.05;;
35632;SDS011;21754;48.216;-1.628;2022-07-06T00:02:30;6.43;;;1.90;;
35632;SDS011;21754;48.216;-1.628;2022-07-06T00:04:56;4.70;;;1.77;;
35632;SDS011;21754;48.216;-1.628;2022-07-06T00:07:22;4.47;;;1.52;;
35632;SDS011;21754;48.216;-1.628;2022-07-06T00:09:48;12.55;;;2.65;;
35632;SDS011;21754;48.216;-1.628;2022-07-06T00:12:14;7.22;;;2.28;;
35632;SDS011;21754;48.216;-1.628;2022-07-06T00:14:40;9.00;;;1.80;;
35632;SDS011;21754;48.216;-1.628;2022-07-06T00:17:06;9.50;;;3.05;;
35632;SDS011;21754;48.216;-1.628;2022-07-06T00:19:32;12.25;;;2.78;;
35632;SDS011;21754;48.216;-1.628;2022-07-06T00:21:57;7.57;;;1.33;;
35632;SDS011;21754;48.216;-1.628;2022-07-06T00:24:23;6.68;;;2.05;;
35632;SDS011;21754;48.216;-1.628;2022-07-06T00:26:51;6.53;;;2.38;;
35632;SDS011;21754;48.216;-1.628;2022-07-06T00:29:16;6.05;;;1.40;;
35632;SDS011;21754;48.216;-1.628;2022-07-06T00:31:42;7.80;;;2.03;;
35632;SDS011;21754;48.216;-1.628;2022-07-06T00:34:07;3.70;;;1.45;;
35632;SDS011;21754;48.216;-1.628;2022-07-06T00:36:33;10.52;;;2.13;;
35632;SDS011;21754;48.216;-1.628;2022-07-06T00:38:59;7.20;;;1.33;;
35632;SDS011;21754;48.216;-1.628;2022-07-06T00:41:24;2.53;;;1.80;;
35632;SDS011;21754;48.216;-1.628;2022-07-06T00:43:54;4.40;;;2.25;;
35632;SDS011;21754;48.216;-1.628;2022-07-06T00:46:31;8.15;;;1.85;;
35632;SDS011;21754;48.216;-1.628;2022-07-06T00:48:57;5.88;;;1.48;;
35632;SDS011;21754;48.216;-1.628;2022-07-06T00:51:25;3.85;;;1.85;;
35632;SDS011;21754;48.216;-1.628;2022-07-06T00:53:54;5.93;;;2.30;;
35632;SDS011;21754;48.216;-1.628;2022-07-06T00:56:22;2.58;;;1.73;;
35632;SDS011;21754;48.216;-1.628;2022-07-06T00:58:49;5.78;;;1.50;;
35632;SDS011;21754;48.216;-1.628;2022-07-06T01:01:15;4.78;;;1.77;;
35632;SDS011;21754;48.216;-1.628;2022-07-06T01:03:41;11.20;;;2.30;;
35632;SDS011;21754;48.216;-1.628;2022-07-06T01:06:06;4.53;;;1.67;;
35632;SDS011;21754;48.216;-1.628;2022-07-06T01:08:32;4.97;;;1.67;;
35632;SDS011;21754;48.216;-1.628;2022-07-06T01:10:58;4.40;;;2.00;;
35632;SDS011;21754;48.216;-1.628;2022-07-06T01:13:24;8.60;;;2.53;;
35632;SDS011;21754;48.216;-1.628;2022-07-06T01:15:51;6.13;;;2.05;;
35632;SDS011;21754;48.216;-1.628;2022-07-06T01:18:17;6.85;;;2.65;;
35632;SDS011;21754;48.216;-1.628;2022-07-06T01:20:44;3.05;;;1.73;;
35632;SDS011;21754;48.216;-1.628;2022-07-06T01:23:10;6.40;;;2.20;;
35632;SDS011;21754;48.216;-1.628;2022-07-06T01:25:35;6.10;;;2.50;;
35632;SDS011;21754;48.216;-1.628;2022-07-06T01:28:01;5.40;;;2.10;;
35632;SDS011;21754;48.216;-1.628;2022-07-06T01:30:27;4.40;;;1.80;;
35632;SDS011;21754;48.216;-1.628;2022-07-06T01:32:53;7.68;;;2.13;;
35632;SDS011;21754;48.216;-1.628;2022-07-06T01:35:18;3.63;;;1.60;;
35632;SDS011;21754;48.216;-1.628;2022-07-06T01:37:44;5.57;;;2.00;;
35632;SDS011;21754;48.216;-1.628;2022-07-06T01:40:11;10.65;;;2.55;;
35632;SDS011;21754;48.216;-1.628;2022-07-06T01:42:37;10.07;;;1.85;;
35632;SDS011;21754;48.216;-1.628;2022-07-06T01:45:04;5.80;;;2.17;;
35632;SDS011;21754;48.216;-1.628;2022-07-06T01:47:30;3.63;;;2.58;;
35632;SDS011;21754;48.216;-1.628;2022-07-06T01:49:58;4.80;;;2.50;;
35632;SDS011;21754;48.216;-1.628;2022-07-06T01:52:24;8.57;;;1.85;;
35632;SDS011;21754;48.216;-1.628;2022-07-06T01:54:50;10.52;;;2.47;;
35632;SDS011;21754;48.216;-1.628;2022-07-06T01:57:16;11.55;;;3.30;;
35632;SDS011;21754;48.216;-1.628;2022-07-06T01:59:42;10.07;;;2.33;;
35632;SDS011;21754;48.216;-1.628;2022-07-06T02:02:07;8.10;;;1.90;;
35632;SDS011;21754;48.216;-1.628;2022-07-06T02:04:33;7.82;;;2.88;;
35632;SDS011;21754;48.216;-1.628;2022-07-06T02:06:59;5.55;;;2.15;;
35632;SDS011;21754;48.216;-1.628;2022-07-06T02:09:24;4.43;;;1.88;;
35632;SDS011;21754;48.216;-1.628;2022-07-06T02:11:50;3.65;;;2.13;;
35632;SDS011;21754;48.216;-1.628;2022-07-06T02:14:15;30.02;;;3.05;;
35632;SDS011;21754;48.216;-1.628;2022-07-06T02:16:41;17.85;;;2.13;;
35632;SDS011;21754;48.216;-1.628;2022-07-06T02:19:07;37.58;;;3.25;;
35632;SDS011;21754;48.216;-1.628;2022-07-06T02:21:32;113.53;;;6.05;;
35632;SDS011;21754;48.216;-1.628;2022-07-06T02:23:58;11.88;;;1.80;;
35632;SDS011;21754;48.216;-1.628;2022-07-06T02:26:24;9.43;;;2.58;;
35632;SDS011;21754;48.216;-1.628;2022-07-06T02:28:49;5.25;;;2.50;;
35632;SDS011;21754;48.216;-1.628;2022-07-06T02:31:15;10.52;;;2.28;;
35632;SDS011;21754;48.216;-1.628;2022-07-06T02:33:41;10.07;;;2.63;;
35632;SDS011;21754;48.216;-1.628;2022-07-06T02:36:06;10.65;;;2.88;;
35632;SDS011;21754;48.216;-1.628;2022-07-06T02:38:32;5.65;;;3.15;;
35632;SDS011;21754;48.216;-1.628;2022-07-06T02:40:58;5.35;;;2.50;;
35632;SDS011;21754;48.216;-1.628;2022-07-06T02:43:24;11.77;;;2.53;;
35632;SDS011;21754;48.216;-1.628;2022-07-06T02:45:50;6.50;;;2.45;;
35632;SDS011;21754;48.216;-1.628;2022-07-06T02:48:15;27.70;;;3.15;;
35632;SDS011;21754;48.216;-1.628;2022-07-06T02:50:41;10.77;;;2.80;;
35632;SDS011;21754;48.216;-1.628;2022-07-06T02:53:07;41.05;;;3.70;;
35632;SDS011;21754;48.216;-1.628;2022-07-06T02:55:32;163.88;;;7.28;;
35632;SDS011;21754;48.216;-1.628;2022-07-06T02:57:58;8.93;;;2.53;;
35632;SDS011;21754;48.216;-1.628;2022-07-06T03:00:24;30.00;;;2.90;;
35632;SDS011;21754;48.216;-1.628;2022-07-06T03:02:49;13.77;;;3.15;;
35632;SDS011;21754;48.216;-1.628;2022-07-06T03:05:15;9.93;;;2.72;;
35632;SDS011;21754;48.216;-1.628;2022-07-06T03:07:40;70.93;;;4.97;;
35632;SDS011;21754;48.216;-1.628;2022-07-06T03:10:06;48.03;;;4.07;;
35632;SDS011;21754;48.216;-1.628;2022-07-06T03:12:32;118.90;;;7.97;;
35632;SDS011;21754;48.216;-1.628;2022-07-06T03:14:58;83.32;;;5.47;;
35632;SDS011;21754;48.216;-1.628;2022-07-06T03:17:24;61.17;;;4.57;;
35632;SDS011;21754;48.216;-1.628;2022-07-06T03:19:49;81.05;;;4.65;;
35632;SDS011;21754;48.216;-1.628;2022-07-06T03:22:15;38.05;;;4.32;;
35632;SDS011;21754;48.216;-1.628;2022-07-06T03:24:40;41.00;;;4.20;;
35632;SDS011;21754;48.216;-1.628;2022-07-06T03:27:06;30.73;;;4.00;;
35632;SDS011;21754;48.216;-1.628;2022-07-06T03:29:32;17.15;;;3.85;;
35632;SDS011;21754;48.216;-1.628;2022-07-06T03:31:57;28.33;;;3.85;;
35632;SDS011;21754;48.216;-1.628;2022-07-06T03:34:23;7.78;;;3.80;;
35632;SDS011;21754;48.216;-1.628;2022-07-06T03:36:49;15.85;;;4.03;;
35632;SDS011;21754;48.216;-1.628;2022-07-06T03:39:14;29.17;;;3.95;;
35632;SDS011;21754;48.216;-1.628;2022-07-06T03:41:40;13.93;;;3.80;;
35632;SDS011;21754;48.216;-1.628;2022-07-06T03:44:06;9.88;;;4.18;;
35632;SDS011;21754;48.216;-1.628;2022-07-06T03:46:31;19.55;;;3.53;;
35632;SDS011;21754;48.216;-1.628;2022-07-06T03:48:57;18.85;;;3.05;;
35632;SDS011;21754;48.216;-1.628;2022-07-06T03:51:22;21.17;;;3.60;;
35632;SDS011;21754;48.216;-1.628;2022-07-06T03:53:48;23.98;;;3.95;;
35632;SDS011;21754;48.216;-1.628;2022-07-06T03:56:14;8.98;;;3.25;;
35632;SDS011;21754;48.216;-1.628;2022-07-06T03:58:58;20.67;;;3.38;;
35632;SDS011;21754;48.216;-1.628;2022-07-06T04:01:25;11.85;;;3.90;;
35632;SDS011;21754;48.216;-1.628;2022-07-06T04:03:51;11.60;;;3.75;;
35632;SDS011;21754;48.216;-1.628;2022-07-06T04:06:17;12.27;;;3.45;;
35632;SDS011;21754;48.216;-1.628;2022-07-06T04:08:43;20.27;;;3.22;;
35632;SDS011;21754;48.216;-1.628;2022-07-06T04:11:09;8.48;;;3.58;;
35632;SDS011;21754;48.216;-1.628;2022-07-06T04:13:34;21.83;;;3.80;;
35632;SDS011;21754;48.216;-1.628;2022-07-06T04:16:00;19.73;;;3.42;;
35632;SDS011;21754;48.216;-1.628;2022-07-06T04:18:26;5.68;;;3.55;;
35632;SDS011;21754;48.216;-1.628;2022-07-06T04:20:51;11.50;;;3.50;;
35632;SDS011;21754;48.216;-1.628;2022-07-06T04:23:17;20.90;;;3.85;;
35632;SDS011;21754;48.216;-1.628;2022-07-06T04:25:43;26.00;;;3.50;;
35632;SDS011;21754;48.216;-1.628;2022-07-06T04:28:08;11.48;;;3.20;;
35632;SDS011;21754;48.216;-1.628;2022-07-06T04:30:34;15.38;;;3.35;;
35632;SDS011;21754;48.216;-1.628;2022-07-06T04:33:00;26.25;;;4.38;;
35632;SDS011;21754;48.216;-1.628;2022-07-06T04:35:26;15.02;;;3.40;;
35632;SDS011;21754;48.216;-1.628;2022-07-06T04:37:51;11.70;;;3.50;;
35632;SDS011;21754;48.216;-1.628;2022-07-06T04:40:17;9.40;;;3.13;;
35632;SDS011;21754;48.216;-1.628;2022-07-06T04:42:43;9.05;;;3.40;;
35632;SDS011;21754;48.216;-1.628;2022-07-06T04:45:09;9.02;;;3.53;;
35632;SDS011;21754;48.216;-1.628;2022-07-06T04:47:35;13.63;;;2.80;;
35632;SDS011;21754;48.216;-1.628;2022-07-06T04:50:01;9.00;;;3.30;;
35632;SDS011;21754;48.216;-1.628;2022-07-06T04:52:28;9.30;;;3.63;;
35632;SDS011;21754;48.216;-1.628;2022-07-06T04:54:54;12.00;;;3.55;;
35632;SDS011;21754;48.216;-1.628;2022-07-06T04:57:20;11.25;;;3.58;;
35632;SDS011;21754;48.216;-1.628;2022-07-06T04:59:46;11.13;;;3.53;;
35632;SDS011;21754;48.216;-1.628;2022-07-06T05:02:11;22.73;;;3.83;;
35632;SDS011;21754;48.216;-1.628;2022-07-06T05:04:37;24.40;;;3.78;;
35632;SDS011;21754;48.216;-1.628;2022-07-06T05:07:03;24.38;;;4.18;;
35632;SDS011;21754;48.216;-1.628;2022-07-06T05:09:29;22.92;;;3.30;;
35632;SDS011;21754;48.216;-1.628;2022-07-06T05:11:54;22.88;;;3.72;;
35632;SDS011;21754;48.216;-1.628;2022-07-06T05:14:20;35.22;;;3.42;;
35632;SDS011;21754;48.216;-1.628;2022-07-06T05:16:46;15.65;;;3.83;;
35632;SDS011;21754;48.216;-1.628;2022-07-06T05:19:11;35.85;;;3.47;;
35632;SDS011;21754;48.216;-1.628;2022-07-06T05:21:37;25.77;;;3.35;;
35632;SDS011;21754;48.216;-1.628;2022-07-06T05:24:03;46.75;;;3.88;;
35632;SDS011;21754;48.216;-1.628;2022-07-06T05:26:28;96.05;;;5.80;;
35632;SDS011;21754;48.216;-1.628;2022-07-06T05:28:54;88.07;;;5.78;;
35632;SDS011;21754;48.216;-1.628;2022-07-06T05:31:20;59.83;;;4.75;;
35632;SDS011;21754;48.216;-1.628;2022-07-06T05:33:45;115.20;;;6.22;;
35632;SDS011;21754;48.216;-1.628;2022-07-06T05:36:11;98.88;;;5.75;;
35632;SDS011;21754;48.216;-1.628;2022-07-06T05:38:37;63.00;;;5.40;;
35632;SDS011;21754;48.216;-1.628;2022-07-06T05:41:02;44.58;;;4.63;;
35632;SDS011;21754;48.216;-1.628;2022-07-06T05:43:28;44.03;;;4.50;;
35632;SDS011;21754;48.216;-1.628;2022-07-06T05:45:53;29.02;;;4.50;;
35632;SDS011;21754;48.216;-1.628;2022-07-06T05:48:19;15.38;;;3.92;;
35632;SDS011;21754;48.216;-1.628;2022-07-06T05:51:03;39.05;;;3.78;;
35632;SDS011;21754;48.216;-1.628;2022-07-06T05:53:29;8.20;;;3.70;;
35632;SDS011;21754;48.216;-1.628;2022-07-06T05:55:54;12.90;;;4.50;;
35632;SDS011;21754;48.216;-1.628;2022-07-06T05:58:20;6.65;;;4.18;;
35632;SDS011;21754;48.216;-1.628;2022-07-06T06:00:46;5.55;;;4.40;;
35632;SDS011;21754;48.216;-1.628;2022-07-06T06:03:11;6.50;;;4.57;;
35632;SDS011;21754;48.216;-1.628;2022-07-06T06:05:37;4.60;;;4.20;;
35632;SDS011;21754;48.216;-1.628;2022-07-06T06:08:03;5.85;;;4.35;;
35632;SDS011;21754;48.216;-1.628;2022-07-06T06:10:28;10.80;;;4.80;;
35632;SDS011;21754;48.216;-1.628;2022-07-06T06:12:54;4.80;;;4.40;;
35632;SDS011;21754;48.216;-1.628;2022-07-06T06:15:20;16.38;;;4.13;;
35632;SDS011;21754;48.216;-1.628;2022-07-06T06:17:46;5.05;;;4.38;;
35632;SDS011;21754;48.216;-1.628;2022-07-06T06:20:13;6.65;;;5.05;;
35632;SDS011;21754;48.216;-1.628;2022-07-06T06:25:21;8.15;;;4.60;;
35632;SDS011;21754;48.216;-1.628;2022-07-06T06:27:56;7.38;;;4.70;;
35632;SDS011;21754;48.216;-1.628;2022-07-06T06:30:21;9.90;;;5.38;;
35632;SDS011;21754;48.216;-1.628;2022-07-06T06:32:47;7.60;;;5.07;;
35632;SDS011;21754;48.216;-1.628;2022-07-06T06:35:13;12.35;;;4.43;;
35632;SDS011;21754;48.216;-1.628;2022-07-06T06:37:38;14.27;;;6.00;;
35632;SDS011;21754;48.216;-1.628;2022-07-06T06:40:05;6.38;;;5.68;;
35632;SDS011;21754;48.216;-1.628;2022-07-06T06:42:31;6.30;;;5.55;;
35632;SDS011;21754;48.216;-1.628;2022-07-06T06:44:57;5.90;;;5.18;;
35632;SDS011;21754;48.216;-1.628;2022-07-06T06:47:23;7.70;;;5.90;;
35632;SDS011;21754;48.216;-1.628;2022-07-06T06:49:49;11.55;;;5.63;;
35632;SDS011;21754;48.216;-1.628;2022-07-06T06:52:15;10.43;;;6.32;;
35632;SDS011;21754;48.216;-1.628;2022-07-06T06:54:40;7.47;;;5.22;;
35632;SDS011;21754;48.216;-1.628;2022-07-06T06:57:06;6.25;;;5.50;;
35632;SDS011;21754;48.216;-1.628;2022-07-06T06:59:32;11.13;;;5.60;;
35632;SDS011;21754;48.216;-1.628;2022-07-06T07:01:57;7.28;;;5.57;;
35632;SDS011;21754;48.216;-1.628;2022-07-06T07:04:23;9.82;;;5.72;;
35632;SDS011;21754;48.216;-1.628;2022-07-06T07:06:49;18.05;;;6.35;;
35632;SDS011;21754;48.216;-1.628;2022-07-06T07:09:15;11.45;;;5.93;;
35632;SDS011;21754;48.216;-1.628;2022-07-06T07:11:40;8.07;;;5.30;;
35632;SDS011;21754;48.216;-1.628;2022-07-06T07:14:06;12.15;;;5.68;;
35632;SDS011;21754;48.216;-1.628;2022-07-06T07:16:31;9.30;;;5.13;;
35632;SDS011;21754;48.216;-1.628;2022-07-06T07:18:58;7.07;;;4.28;;
35632;SDS011;21754;48.216;-1.628;2022-07-06T07:21:23;5.20;;;3.75;;
35632;SDS011;21754;48.216;-1.628;2022-07-06T07:23:49;7.43;;;5.03;;
35632;SDS011;21754;48.216;-1.628;2022-07-06T07:26:15;9.00;;;4.43;;
35632;SDS011;21754;48.216;-1.628;2022-07-06T07:28:41;12.82;;;3.90;;
35632;SDS011;21754;48.216;-1.628;2022-07-06T07:31:07;7.90;;;3.50;;
35632;SDS011;21754;48.216;-1.628;2022-07-06T07:33:33;10.50;;;3.80;;
35632;SDS011;21754;48.216;-1.628;2022-07-06T07:35:59;5.57;;;2.90;;
35632;SDS011;21754;48.216;-1.628;2022-07-06T07:38:25;8.30;;;3.10;;
35632;SDS011;21754;48.216;-1.628;2022-07-06T07:40:50;3.67;;;2.55;;
35632;SDS011;21754;48.216;-1.628;2022-07-06T07:43:18;4.68;;;2.03;;
35632;SDS011;21754;48.216;-1.628;2022-07-06T07:45:44;13.68;;;2.38;;
35632;SDS011;21754;48.216;-1.628;2022-07-06T07:48:10;7.25;;;1.83;;
35632;SDS011;21754;48.216;-1.628;2022-07-06T07:50:35;10.23;;;2.55;;
35632;SDS011;21754;48.216;-1.628;2022-07-06T07:53:01;10.95;;;2.40;;
35632;SDS011;21754;48.216;-1.628;2022-07-06T07:55:27;2.83;;;1.67;;
35632;SDS011;21754;48.216;-1.628;2022-07-06T07:57:52;6.32;;;1.92;;
35632;SDS011;21754;48.216;-1.628;2022-07-06T08:00:18;4.40;;;1.83;;
35632;SDS011;21754;48.216;-1.628;2022-07-06T08:05:12;4.72;;;1.67;;
35632;SDS011;21754;48.216;-1.628;2022-07-06T08:07:40;3.50;;;1.38;;
35632;SDS011;21754;48.216;-1.628;2022-07-06T08:10:09;9.05;;;1.60;;
35632;SDS011;21754;48.216;-1.628;2022-07-06T08:12:35;6.30;;;1.33;;
35632;SDS011;21754;48.216;-1.628;2022-07-06T08:15:02;2.25;;;1.20;;
35632;SDS011;21754;48.216;-1.628;2022-07-06T08:17:28;4.00;;;1.73;;
35632;SDS011;21754;48.216;-1.628;2022-07-06T08:19:53;7.82;;;1.63;;
35632;SDS011;21754;48.216;-1.628;2022-07-06T08:22:19;8.02;;;1.15;;
35632;SDS011;21754;48.216;-1.628;2022-07-06T08:24:45;10.88;;;1.85;;
35632;SDS011;21754;48.216;-1.628;2022-07-06T08:27:10;4.68;;;1.92;;
35632;SDS011;21754;48.216;-1.628;2022-07-06T08:29:36;4.95;;;1.80;;
35632;SDS011;21754;48.216;-1.628;2022-07-06T08:32:01;6.85;;;1.95;;
35632;SDS011;21754;48.216;-1.628;2022-07-06T08:34:27;6.20;;;2.13;;
35632;SDS011;21754;48.216;-1.628;2022-07-06T08:36:53;6.68;;;1.95;;
35632;SDS011;21754;48.216;-1.628;2022-07-06T08:39:18;1.23;;;0.90;;
35632;SDS011;21754;48.216;-1.628;2022-07-06T08:41:44;5.55;;;1.42;;
35632;SDS011;21754;48.216;-1.628;2022-07-06T08:44:12;3.50;;;1.13;;
35632;SDS011;21754;48.216;-1.628;2022-07-06T08:46:40;2.22;;;1.13;;
35632;SDS011;21754;48.216;-1.628;2022-07-06T08:49:06;4.18;;;1.30;;
35632;SDS011;21754;48.216;-1.628;2022-07-06T08:51:34;6.57;;;2.33;;
35632;SDS011;21754;48.216;-1.628;2022-07-06T08:54:02;3.25;;;1.27;;
35632;SDS011;21754;48.216;-1.628;2022-07-06T08:56:28;2.92;;;1.35;;
35632;SDS011;21754;48.216;-1.628;2022-07-06T08:58:54;5.03;;;1.40;;
35632;SDS011;21754;48.216;-1.628;2022-07-06T09:01:21;3.22;;;1.30;;
35632;SDS011;21754;48.216;-1.628;2022-07-06T09:03:48;2.60;;;1.58;;
35632;SDS011;21754;48.216;-1.628;2022-07-06T09:06:14;5.90;;;1.35;;
35632;SDS011;21754;48.216;-1.628;2022-07-06T09:08:44;3.92;;;1.60;;
35632;SDS011;21754;48.216;-1.628;2022-07-06T09:11:11;4.97;;;1.90;;
35632;SDS011;21754;48.216;-1.628;2022-07-06T09:13:37;6.25;;;1.90;;
35632;SDS011;21754;48.216;-1.628;2022-07-06T09:16:12;1.58;;;0.90;;
35632;SDS011;21754;48.216;-1.628;2022-07-06T09:18:39;7.43;;;1.38;;
35632;SDS011;21754;48.216;-1.628;2022-07-06T09:21:08;2.28;;;1.55;;
35632;SDS011;21754;48.216;-1.628;2022-07-06T09:23:34;2.67;;;1.40;;
35632;SDS011;21754;48.216;-1.628;2022-07-06T09:26:02;2.40;;;1.00;;
35632;SDS011;21754;48.216;-1.628;2022-07-06T09:28:44;5.57;;;1.10;;
35632;SDS011;21754;48.216;-1.628;2022-07-06T09:31:10;10.80;;;1.58;;
35632;SDS011;21754;48.216;-1.628;2022-07-06T09:33:37;6.05;;;1.38;;
35632;SDS011;21754;48.216;-1.628;2022-07-06T09:36:03;3.58;;;1.00;;
35632;SDS011;21754;48.216;-1.628;2022-07-06T09:40:56;5.82;;;1.73;;
35632;SDS011;21754;48.216;-1.628;2022-07-06T09:43:22;2.75;;;0.80;;
35632;SDS011;21754;48.216;-1.628;2022-07-06T09:45:50;1.88;;;0.80;;
35632;SDS011;21754;48.216;-1.628;2022-07-06T09:48:17;2.63;;;0.90;;
35632;SDS011;21754;48.216;-1.628;2022-07-06T09:50:49;1.15;;;0.82;;
35632;SDS011;21754;48.216;-1.628;2022-07-06T09:53:19;1.30;;;0.80;;
35632;SDS011;21754;48.216;-1.628;2022-07-06T09:58:14;3.90;;;0.98;;
35632;SDS011;21754;48.216;-1.628;2022-07-06T10:00:40;1.40;;;0.90;;
35632;SDS011;21754;48.216;-1.628;2022-07-06T10:03:06;1.73;;;1.43;;
35632;SDS011;21754;48.216;-1.628;2022-07-06T10:05:36;11.20;;;1.15;;
35632;SDS011;21754;48.216;-1.628;2022-07-06T10:08:06;1.88;;;0.80;;
35632;SDS011;21754;48.216;-1.628;2022-07-06T10:10:37;2.20;;;0.90;;
35632;SDS011;21754;48.216;-1.628;2022-07-06T10:13:04;5.38;;;1.60;;
35632;SDS011;21754;48.216;-1.628;2022-07-06T10:15:31;3.28;;;1.20;;
35632;SDS011;21754;48.216;-1.628;2022-07-06T10:17:58;1.90;;;1.27;;
35632;SDS011;21754;48.216;-1.628;2022-07-06T10:20:28;2.25;;;1.17;;
35632;SDS011;21754;48.216;-1.628;2022-07-06T10:22:56;0.93;;;0.70;;
35632;SDS011;21754;48.216;-1.628;2022-07-06T10:25:26;7.97;;;1.50;;
35632;SDS011;21754;48.216;-1.628;2022-07-06T10:27:52;1.10;;;0.90;;
35632;SDS011;21754;48.216;-1.628;2022-07-06T10:30:18;1.25;;;0.93;;
35632;SDS011;21754;48.216;-1.628;2022-07-06T10:32:46;2.47;;;1.00;;
35632;SDS011;21754;48.216;-1.628;2022-07-06T10:35:13;2.88;;;1.48;;
35632;SDS011;21754;48.216;-1.628;2022-07-06T10:37:40;2.50;;;1.25;;
35632;SDS011;21754;48.216;-1.628;2022-07-06T10:40:06;0.85;;;0.82;;
35632;SDS011;21754;48.216;-1.628;2022-07-06T10:42:57;2.33;;;0.82;;
35632;SDS011;21754;48.216;-1.628;2022-07-06T10:53:10;2.83;;;1.52;;
35632;SDS011;21754;48.216;-1.628;2022-07-06T10:55:58;1.75;;;1.02;;
35632;SDS011;21754;48.216;-1.628;2022-07-06T11:01:16;0.65;;;0.60;;
35632;SDS011;21754;48.216;-1.628;2022-07-06T11:06:19;3.50;;;0.70;;
35632;SDS011;21754;48.216;-1.628;2022-07-06T11:11:18;1.05;;;0.65;;
35632;SDS011;21754;48.216;-1.628;2022-07-06T11:17:03;2.40;;;0.60;;
35632;SDS011;21754;48.216;-1.628;2022-07-06T11:19:29;1.02;;;0.70;;
35632;SDS011;21754;48.216;-1.628;2022-07-06T11:21:57;2.28;;;0.80;;
35632;SDS011;21754;48.216;-1.628;2022-07-06T11:24:33;0.63;;;0.50;;
35632;SDS011;21754;48.216;-1.628;2022-07-06T11:27:01;0.88;;;0.73;;
35632;SDS011;21754;48.216;-1.628;2022-07-06T11:29:28;0.95;;;0.85;;
35632;SDS011;21754;48.216;-1.628;2022-07-06T11:31:55;4.50;;;0.80;;
35632;SDS011;21754;48.216;-1.628;2022-07-06T11:34:30;0.77;;;0.68;;
35632;SDS011;21754;48.216;-1.628;2022-07-06T11:36:58;3.15;;;0.98;;
35632;SDS011;21754;48.216;-1.628;2022-07-06T11:39:32;1.38;;;1.17;;
35632;SDS011;21754;48.216;-1.628;2022-07-06T11:41:59;4.55;;;0.73;;
35632;SDS011;21754;48.216;-1.628;2022-07-06T11:44:26;2.60;;;0.98;;
35632;SDS011;21754;48.216;-1.628;2022-07-06T11:46:52;1.35;;;0.60;;
35632;SDS011;21754;48.216;-1.628;2022-07-06T11:49:21;0.70;;;0.70;;
35632;SDS011;21754;48.216;-1.628;2022-07-06T11:51:47;3.25;;;0.70;;
35632;SDS011;21754;48.216;-1.628;2022-07-06T11:56:51;2.47;;;0.80;;
35632;SDS011;21754;48.216;-1.628;2022-07-06T11:59:22;2.47;;;1.58;;
35632;SDS011;21754;48.216;-1.628;2022-07-06T12:01:59;1.45;;;0.70;;
35632;SDS011;21754;48.216;-1.628;2022-07-06T12:04:25;1.73;;;0.90;;
35632;SDS011;21754;48.216;-1.628;2022-07-06T12:06:50;1.75;;;0.80;;
35632;SDS011;21754;48.216;-1.628;2022-07-06T12:09:16;0.73;;;0.70;;
35632;SDS011;21754;48.216;-1.628;2022-07-06T12:11:45;1.02;;;0.60;;
35632;SDS011;21754;48.216;-1.628;2022-07-06T12:16:45;2.33;;;0.80;;
35632;SDS011;21754;48.216;-1.628;2022-07-06T12:19:12;0.75;;;0.75;;
35632;SDS011;21754;48.216;-1.628;2022-07-06T12:21:42;0.70;;;0.60;;
35632;SDS011;21754;48.216;-1.628;2022-07-06T12:24:09;2.17;;;1.10;;
35632;SDS011;21754;48.216;-1.628;2022-07-06T12:26:38;3.33;;;0.90;;
35632;SDS011;21754;48.216;-1.628;2022-07-06T12:29:06;2.33;;;0.75;;
35632;SDS011;21754;48.216;-1.628;2022-07-06T12:31:38;0.88;;;0.73;;
35632;SDS011;21754;48.216;-1.628;2022-07-06T12:34:05;3.13;;;0.75;;
35632;SDS011;21754;48.216;-1.628;2022-07-06T12:36:44;2.75;;;0.82;;
35632;SDS011;21754;48.216;-1.628;2022-07-06T12:39:16;4.07;;;1.08;;
35632;SDS011;21754;48.216;-1.628;2022-07-06T12:41:45;0.90;;;0.57;;
35632;SDS011;21754;48.216;-1.628;2022-07-06T12:44:18;8.52;;;0.95;;
35632;SDS011;21754;48.216;-1.628;2022-07-06T12:46:51;1.08;;;0.80;;
35632;SDS011;21754;48.216;-1.628;2022-07-06T12:49:26;7.53;;;2.42;;
35632;SDS011;21754;48.216;-1.628;2022-07-06T12:51:53;1.73;;;0.70;;
35632;SDS011;21754;48.216;-1.628;2022-07-06T12:54:20;1.05;;;0.80;;
35632;SDS011;21754;48.216;-1.628;2022-07-06T12:57:06;6.07;;;1.00;;
35632;SDS011;21754;48.216;-1.628;2022-07-06T13:02:01;0.95;;;0.70;;
35632;SDS011;21754;48.216;-1.628;2022-07-06T13:04:29;1.88;;;0.82;;
35632;SDS011;21754;48.216;-1.628;2022-07-06T13:06:58;0.70;;;0.60;;
35632;SDS011;21754;48.216;-1.628;2022-07-06T13:09:24;1.35;;;0.75;;
35632;SDS011;21754;48.216;-1.628;2022-07-06T13:11:50;1.40;;;0.88;;
35632;SDS011;21754;48.216;-1.628;2022-07-06T13:14:16;2.13;;;1.00;;
35632;SDS011;21754;48.216;-1.628;2022-07-06T13:16:44;4.07;;;1.33;;
35632;SDS011;21754;48.216;-1.628;2022-07-06T13:19:10;4.00;;;0.95;;
35632;SDS011;21754;48.216;-1.628;2022-07-06T13:21:36;1.00;;;0.90;;
35632;SDS011;21754;48.216;-1.628;2022-07-06T13:24:02;1.98;;;0.95;;
35632;SDS011;21754;48.216;-1.628;2022-07-06T13:26:28;1.33;;;1.00;;
35632;SDS011;21754;48.216;-1.628;2022-07-06T13:28:57;1.27;;;0.85;;
35632;SDS011;21754;48.216;-1.628;2022-07-06T13:31:24;2.40;;;1.13;;
35632;SDS011;21754;48.216;-1.628;2022-07-06T13:33:49;3.75;;;0.95;;
35632;SDS011;21754;48.216;-1.628;2022-07-06T13:36:15;3.03;;;0.90;;
35632;SDS011;21754;48.216;-1.628;2022-07-06T13:38:41;1.45;;;0.70;;
35632;SDS011;21754;48.216;-1.628;2022-07-06T13:41:06;3.70;;;1.00;;
35632;SDS011;21754;48.216;-1.628;2022-07-06T13:43:32;2.97;;;1.08;;
35632;SDS011;21754;48.216;-1.628;2022-07-06T13:46:04;0.93;;;0.73;;
35632;SDS011;21754;48.216;-1.628;2022-07-06T13:48:31;6.78;;;2.83;;
35632;SDS011;21754;48.216;-1.628;2022-07-06T13:50:57;2.90;;;0.80;;
35632;SDS011;21754;48.216;-1.628;2022-07-06T13:53:23;0.60;;;0.57;;
35632;SDS011;21754;48.216;-1.628;2022-07-06T13:55:49;3.67;;;0.82;;
35632;SDS011;21754;48.216;-1.628;2022-07-06T13:58:14;1.30;;;0.70;;
35632;SDS011;21754;48.216;-1.628;2022-07-06T14:00:40;1.08;;;0.90;;
35632;SDS011;21754;48.216;-1.628;2022-07-06T14:03:06;13.32;;;2.25;;
35632;SDS011;21754;48.216;-1.628;2022-07-06T14:05:32;4.05;;;0.93;;
35632;SDS011;21754;48.216;-1.628;2022-07-06T14:07:57;3.92;;;0.80;;
35632;SDS011;21754;48.216;-1.628;2022-07-06T14:10:23;7.88;;;1.00;;
35632;SDS011;21754;48.216;-1.628;2022-07-06T14:12:49;0.77;;;0.55;;
35632;SDS011;21754;48.216;-1.628;2022-07-06T14:15:14;1.58;;;0.55;;
35632;SDS011;21754;48.216;-1.628;2022-07-06T14:17:40;1.75;;;0.80;;
35632;SDS011;21754;48.216;-1.628;2022-07-06T14:20:06;1.33;;;0.68;;
35632;SDS011;21754;48.216;-1.628;2022-07-06T14:22:32;1.88;;;0.70;;
35632;SDS011;21754;48.216;-1.628;2022-07-06T14:24:58;5.38;;;1.65;;
35632;SDS011;21754;48.216;-1.628;2022-07-06T14:27:24;1.17;;;0.85;;
35632;SDS011;21754;48.216;-1.628;2022-07-06T14:29:50;0.80;;;0.70;;
35632;SDS011;21754;48.216;-1.628;2022-07-06T14:32:15;1.20;;;0.82;;
35632;SDS011;21754;48.216;-1.628;2022-07-06T14:34:41;2.58;;;0.88;;
35632;SDS011;21754;48.216;-1.628;2022-07-06T14:37:07;2.90;;;0.85;;
35632;SDS011;21754;48.216;-1.628;2022-07-06T14:39:33;0.80;;;0.77;;
35632;SDS011;21754;48.216;-1.628;2022-07-06T14:41:59;0.65;;;0.60;;
35632;SDS011;21754;48.216;-1.628;2022-07-06T14:44:24;4.60;;;0.80;;
35632;SDS011;21754;48.216;-1.628;2022-07-06T14:46:51;3.83;;;0.90;;
35632;SDS011;21754;48.216;-1.628;2022-07-06T14:49:17;1.15;;;0.90;;
35632;SDS011;21754;48.216;-1.628;2022-07-06T14:51:43;5.05;;;0.77;;
35632;SDS011;21754;48.216;-1.628;2022-07-06T14:54:08;1.15;;;0.93;;
35632;SDS011;21754;48.216;-1.628;2022-07-06T14:56:34;2.78;;;0.90;;
35632;SDS011;21754;48.216;-1.628;2022-07-06T14:59:00;2.63;;;0.80;;
35632;SDS011;21754;48.216;-1.628;2022-07-06T15:01:26;0.90;;;0.90;;
35632;SDS011;21754;48.216;-1.628;2022-07-06T15:03:52;2.88;;;0.90;;